sensor_id;sensor_type;location;lat;lon;timestamp;temperature;humidity
43949;DHT22;29429;51.074;13.764;2023-08-12T00:00:32;16.60;99.90
43949;DHT22;29429;51.074;13.764;2023-08-12T00:02:59;16.50;99.90
43949;DHT22;29429;51.074;13.764;2023-08-12T00:05:26;16.50;99.90
43949;DHT22;29429;51.074;13.764;2023-08-12T00:07:53;16.40;99.90
43949;DHT22;29429;51.074;13.764;2023-08-12T00:10:20;16.40;99.90
43949;DHT22;29429;51.074;13.764;2023-08-12T00:12:47;16.40;99.90
43949;DHT22;29429;51.074;13.764;2023-08-12T00:15:14;16.40;99.90
43949;DHT22;29429;51.074;13.764;2023-08-12T00:17:41;16.30;99.90
43949;DHT22;29429;51.074;13.764;2023-08-12T00:20:09;16.40;99.90
43949;DHT22;29429;51.074;13.764;2023-08-12T00:22:39;16.30;99.90
43949;DHT22;29429;51.074;13.764;2023-08-12T00:25:06;16.30;99.90
43949;DHT22;29429;51.074;13.764;2023-08-12T00:27:34;16.30;99.90
43949;DHT22;29429;51.074;13.764;2023-08-12T00:30:01;16.30;99.90
43949;DHT22;29429;51.074;13.764;2023-08-12T00:32:28;16.20;99.90
43949;DHT22;29429;51.074;13.764;2023-08-12T00:34:56;16.20;99.90
43949;DHT22;29429;51.074;13.764;2023-08-12T00:37:23;16.20;99.90
43949;DHT22;29429;51.074;13.764;2023-08-12T00:39:51;16.20;99.90
43949;DHT22;29429;51.074;13.764;2023-08-12T00:42:18;16.20;99.90
43949;DHT22;29429;51.074;13.764;2023-08-12T00:44:45;16.10;99.90
43949;DHT22;29429;51.074;13.764;2023-08-12T00:47:13;16.10;99.90
43949;DHT22;29429;51.074;13.764;2023-08-12T00:49:41;16.00;99.90
43949;DHT22;29429;51.074;13.764;2023-08-12T00:52:15;16.20;99.90
43949;DHT22;29429;51.074;13.764;2023-08-12T00:54:44;16.00;99.90
43949;DHT22;29429;51.074;13.764;2023-08-12T00:57:13;16.00;99.90
43949;DHT22;29429;51.074;13.764;2023-08-12T00:59:41;15.90;99.90
43949;DHT22;29429;51.074;13.764;2023-08-12T01:02:12;15.90;99.90
43949;DHT22;29429;51.074;13.764;2023-08-12T01:04:39;15.80;99.90
43949;DHT22;29429;51.074;13.764;2023-08-12T01:07:06;15.80;99.90
43949;DHT22;29429;51.074;13.764;2023-08-12T01:09:33;15.80;99.90
43949;DHT22;29429;51.074;13.764;2023-08-12T01:12:13;15.80;99.90
43949;DHT22;29429;51.074;13.764;2023-08-12T01:15:08;15.70;99.90
43949;DHT22;29429;51.074;13.764;2023-08-12T01:17:43;15.80;99.90
43949;DHT22;29429;51.074;13.764;2023-08-12T01:20:11;15.70;99.90
43949;DHT22;29429;51.074;13.764;2023-08-12T01:22:44;15.70;99.90
43949;DHT22;29429;51.074;13.764;2023-08-12T01:25:12;15.70;99.90
43949;DHT22;29429;51.074;13.764;2023-08-12T01:27:40;15.70;99.90
43949;DHT22;29429;51.074;13.764;2023-08-12T01:30:07;15.70;99.90
43949;DHT22;29429;51.074;13.764;2023-08-12T01:32:57;15.70;99.90
43949;DHT22;29429;51.074;13.764;2023-08-12T01:38:11;15.70;99.90
43949;DHT22;29429;51.074;13.764;2023-08-12T01:40:39;15.70;99.90
43949;DHT22;29429;51.074;13.764;2023-08-12T01:43:07;15.70;99.90
43949;DHT22;29429;51.074;13.764;2023-08-12T01:45:35;15.70;99.90
43949;DHT22;29429;51.074;13.764;2023-08-12T01:48:02;15.70;99.90
43949;DHT22;29429;51.074;13.764;2023-08-12T01:50:30;15.70;99.90
43949;DHT22;29429;51.074;13.764;2023-08-12T01:52:57;15.70;99.90
43949;DHT22;29429;51.074;13.764;2023-08-12T01:55:25;15.80;99.90
43949;DHT22;29429;51.074;13.764;2023-08-12T01:57:53;15.70;99.90
43949;DHT22;29429;51.074;13.764;2023-08-12T02:00:20;15.70;99.90
43949;DHT22;29429;51.074;13.764;2023-08-12T02:02:47;15.70;99.90
43949;DHT22;29429;51.074;13.764;2023-08-12T02:05:14;15.70;99.90
43949;DHT22;29429;51.074;13.764;2023-08-12T02:07:42;15.70;99.90
43949;DHT22;29429;51.074;13.764;2023-08-12T02:10:09;15.70;99.90
43949;DHT22;29429;51.074;13.764;2023-08-12T02:12:36;15.70;99.90
43949;DHT22;29429;51.074;13.764;2023-08-12T02:15:04;15.70;99.90
43949;DHT22;29429;51.074;13.764;2023-08-12T02:17:31;15.70;99.90
43949;DHT22;29429;51.074;13.764;2023-08-12T02:19:58;15.60;99.90
43949;DHT22;29429;51.074;13.764;2023-08-12T02:22:25;15.70;99.90
43949;DHT22;29429;51.074;13.764;2023-08-12T02:24:52;15.70;99.90
43949;DHT22;29429;51.074;13.764;2023-08-12T02:27:20;15.70;99.90
43949;DHT22;29429;51.074;13.764;2023-08-12T02:29:47;15.70;99.90
43949;DHT22;29429;51.074;13.764;2023-08-12T02:32:14;15.60;99.90
43949;DHT22;29429;51.074;13.764;2023-08-12T02:34:41;15.60;99.90
43949;DHT22;29429;51.074;13.764;2023-08-12T02:37:09;15.60;99.90
43949;DHT22;29429;51.074;13.764;2023-08-12T02:39:37;15.50;99.90
43949;DHT22;29429;51.074;13.764;2023-08-12T02:42:04;15.50;99.90
43949;DHT22;29429;51.074;13.764;2023-08-12T02:44:31;15.50;99.90
43949;DHT22;29429;51.074;13.764;2023-08-12T02:46:58;15.50;99.90
43949;DHT22;29429;51.074;13.764;2023-08-12T02:49:25;15.50;99.90
43949;DHT22;29429;51.074;13.764;2023-08-12T02:51:53;15.50;99.90
43949;DHT22;29429;51.074;13.764;2023-08-12T02:54:20;15.40;99.90
43949;DHT22;29429;51.074;13.764;2023-08-12T02:56:47;15.40;99.90
43949;DHT22;29429;51.074;13.764;2023-08-12T02:59:14;15.40;99.90
43949;DHT22;29429;51.074;13.764;2023-08-12T03:01:42;15.40;99.90
43949;DHT22;29429;51.074;13.764;2023-08-12T03:04:09;15.40;99.90
43949;DHT22;29429;51.074;13.764;2023-08-12T03:06:36;15.40;99.90
43949;DHT22;29429;51.074;13.764;2023-08-12T03:09:03;15.40;99.90
43949;DHT22;29429;51.074;13.764;2023-08-12T03:11:31;15.40;99.90
43949;DHT22;29429;51.074;13.764;2023-08-12T03:14:00;15.40;99.90
43949;DHT22;29429;51.074;13.764;2023-08-12T03:16:27;15.40;99.90
43949;DHT22;29429;51.074;13.764;2023-08-12T03:18:54;15.30;99.90
43949;DHT22;29429;51.074;13.764;2023-08-12T03:21:21;15.30;99.90
43949;DHT22;29429;51.074;13.764;2023-08-12T03:23:49;15.30;99.90
43949;DHT22;29429;51.074;13.764;2023-08-12T03:26:17;15.30;99.90
43949;DHT22;29429;51.074;13.764;2023-08-12T03:28:45;15.30;99.90
43949;DHT22;29429;51.074;13.764;2023-08-12T03:31:15;15.20;99.90
43949;DHT22;29429;51.074;13.764;2023-08-12T03:33:42;15.30;99.90
43949;DHT22;29429;51.074;13.764;2023-08-12T03:36:11;15.30;99.90
43949;DHT22;29429;51.074;13.764;2023-08-12T03:38:38;15.30;99.90
43949;DHT22;29429;51.074;13.764;2023-08-12T03:41:09;15.30;99.90
43949;DHT22;29429;51.074;13.764;2023-08-12T03:43:36;15.30;99.90
43949;DHT22;29429;51.074;13.764;2023-08-12T03:46:05;15.30;99.90
43949;DHT22;29429;51.074;13.764;2023-08-12T03:48:32;15.40;99.90
43949;DHT22;29429;51.074;13.764;2023-08-12T03:50:59;15.30;99.90
43949;DHT22;29429;51.074;13.764;2023-08-12T03:53:27;15.30;99.90
43949;DHT22;29429;51.074;13.764;2023-08-12T03:55:55;15.30;99.90
43949;DHT22;29429;51.074;13.764;2023-08-12T03:58:22;15.30;99.90
43949;DHT22;29429;51.074;13.764;2023-08-12T04:00:49;15.30;99.90
43949;DHT22;29429;51.074;13.764;2023-08-12T04:03:17;15.30;99.90
43949;DHT22;29429;51.074;13.764;2023-08-12T04:05:51;15.30;99.90
43949;DHT22;29429;51.074;13.764;2023-08-12T04:08:22;15.40;99.90
43949;DHT22;29429;51.074;13.764;2023-08-12T04:10:51;15.40;99.90
43949;DHT22;29429;51.074;13.764;2023-08-12T04:13:18;15.40;99.90
43949;DHT22;29429;51.074;13.764;2023-08-12T04:15:50;15.50;99.90
43949;DHT22;29429;51.074;13.764;2023-08-12T04:18:17;15.50;99.90
43949;DHT22;29429;51.074;13.764;2023-08-12T04:20:52;15.50;99.90
43949;DHT22;29429;51.074;13.764;2023-08-12T04:23:20;15.60;99.90
43949;DHT22;29429;51.074;13.764;2023-08-12T04:25:47;15.60;99.90
43949;DHT22;29429;51.074;13.764;2023-08-12T04:28:17;15.70;99.90
43949;DHT22;29429;51.074;13.764;2023-08-12T04:30:47;15.70;99.90
43949;DHT22;29429;51.074;13.764;2023-08-12T04:33:17;15.80;99.90
43949;DHT22;29429;51.074;13.764;2023-08-12T04:35:47;15.90;99.90
43949;DHT22;29429;51.074;13.764;2023-08-12T04:38:16;15.90;99.90
43949;DHT22;29429;51.074;13.764;2023-08-12T04:40:44;16.00;99.90
43949;DHT22;29429;51.074;13.764;2023-08-12T04:43:12;16.10;99.90
43949;DHT22;29429;51.074;13.764;2023-08-12T04:45:40;16.00;99.90
43949;DHT22;29429;51.074;13.764;2023-08-12T04:48:12;16.20;99.90
43949;DHT22;29429;51.074;13.764;2023-08-12T04:50:42;16.30;99.90
43949;DHT22;29429;51.074;13.764;2023-08-12T04:53:09;16.30;99.90
43949;DHT22;29429;51.074;13.764;2023-08-12T04:55:36;16.50;99.90
43949;DHT22;29429;51.074;13.764;2023-08-12T04:58:04;16.50;99.90
43949;DHT22;29429;51.074;13.764;2023-08-12T05:00:31;16.50;99.90
43949;DHT22;29429;51.074;13.764;2023-08-12T05:02:59;16.60;99.90
43949;DHT22;29429;51.074;13.764;2023-08-12T05:05:26;16.60;99.90
43949;DHT22;29429;51.074;13.764;2023-08-12T05:07:54;16.50;99.90
43949;DHT22;29429;51.074;13.764;2023-08-12T05:10:21;16.60;99.90
43949;DHT22;29429;51.074;13.764;2023-08-12T05:12:49;16.60;99.90
43949;DHT22;29429;51.074;13.764;2023-08-12T05:15:18;16.60;99.90
43949;DHT22;29429;51.074;13.764;2023-08-12T05:17:46;16.60;99.90
43949;DHT22;29429;51.074;13.764;2023-08-12T05:20:16;16.70;99.90
43949;DHT22;29429;51.074;13.764;2023-08-12T05:22:43;16.80;99.90
43949;DHT22;29429;51.074;13.764;2023-08-12T05:25:10;16.80;99.90
43949;DHT22;29429;51.074;13.764;2023-08-12T05:27:37;16.90;99.90
43949;DHT22;29429;51.074;13.764;2023-08-12T05:30:06;17.00;99.90
43949;DHT22;29429;51.074;13.764;2023-08-12T05:32:33;17.10;99.90
43949;DHT22;29429;51.074;13.764;2023-08-12T05:35:00;17.30;99.90
43949;DHT22;29429;51.074;13.764;2023-08-12T05:37:27;17.40;99.90
43949;DHT22;29429;51.074;13.764;2023-08-12T05:39:54;17.50;99.90
43949;DHT22;29429;51.074;13.764;2023-08-12T05:42:21;17.50;99.90
43949;DHT22;29429;51.074;13.764;2023-08-12T05:44:48;17.70;99.90
43949;DHT22;29429;51.074;13.764;2023-08-12T05:47:15;17.80;99.90
43949;DHT22;29429;51.074;13.764;2023-08-12T05:49:42;17.90;99.90
43949;DHT22;29429;51.074;13.764;2023-08-12T05:52:09;18.00;99.90
43949;DHT22;29429;51.074;13.764;2023-08-12T05:54:37;18.10;99.90
43949;DHT22;29429;51.074;13.764;2023-08-12T05:57:04;18.20;99.90
43949;DHT22;29429;51.074;13.764;2023-08-12T05:59:31;18.30;99.90
43949;DHT22;29429;51.074;13.764;2023-08-12T06:01:58;18.30;99.90
43949;DHT22;29429;51.074;13.764;2023-08-12T06:04:25;18.40;99.90
43949;DHT22;29429;51.074;13.764;2023-08-12T06:06:52;18.50;99.90
43949;DHT22;29429;51.074;13.764;2023-08-12T06:09:19;18.50;99.90
43949;DHT22;29429;51.074;13.764;2023-08-12T06:11:46;18.60;99.90
43949;DHT22;29429;51.074;13.764;2023-08-12T06:14:13;18.70;99.90
43949;DHT22;29429;51.074;13.764;2023-08-12T06:16:40;18.80;99.90
43949;DHT22;29429;51.074;13.764;2023-08-12T06:19:07;18.90;99.90
43949;DHT22;29429;51.074;13.764;2023-08-12T06:21:35;19.00;99.90
43949;DHT22;29429;51.074;13.764;2023-08-12T06:24:02;19.20;99.90
43949;DHT22;29429;51.074;13.764;2023-08-12T06:26:29;19.40;99.90
43949;DHT22;29429;51.074;13.764;2023-08-12T06:28:56;19.50;99.90
43949;DHT22;29429;51.074;13.764;2023-08-12T06:31:23;19.70;99.90
43949;DHT22;29429;51.074;13.764;2023-08-12T06:33:50;19.80;99.90
43949;DHT22;29429;51.074;13.764;2023-08-12T06:36:17;20.10;99.90
43949;DHT22;29429;51.074;13.764;2023-08-12T06:38:44;20.20;99.90
43949;DHT22;29429;51.074;13.764;2023-08-12T06:41:11;20.40;99.90
43949;DHT22;29429;51.074;13.764;2023-08-12T06:43:38;20.60;99.90
43949;DHT22;29429;51.074;13.764;2023-08-12T06:46:05;20.70;99.90
43949;DHT22;29429;51.074;13.764;2023-08-12T06:48:32;20.70;99.90
43949;DHT22;29429;51.074;13.764;2023-08-12T06:50:59;20.70;99.90
43949;DHT22;29429;51.074;13.764;2023-08-12T06:53:27;20.70;99.90
43949;DHT22;29429;51.074;13.764;2023-08-12T06:55:53;20.70;99.90
43949;DHT22;29429;51.074;13.764;2023-08-12T06:58:21;20.70;99.90
43949;DHT22;29429;51.074;13.764;2023-08-12T07:00:48;20.70;99.90
43949;DHT22;29429;51.074;13.764;2023-08-12T07:03:15;20.80;99.90
43949;DHT22;29429;51.074;13.764;2023-08-12T07:05:42;20.90;99.90
43949;DHT22;29429;51.074;13.764;2023-08-12T07:08:09;21.10;99.90
43949;DHT22;29429;51.074;13.764;2023-08-12T07:10:40;21.30;99.90
43949;DHT22;29429;51.074;13.764;2023-08-12T07:13:08;21.40;99.90
43949;DHT22;29429;51.074;13.764;2023-08-12T07:15:35;21.50;99.90
43949;DHT22;29429;51.074;13.764;2023-08-12T07:18:02;21.60;99.90
43949;DHT22;29429;51.074;13.764;2023-08-12T07:20:30;21.60;99.90
43949;DHT22;29429;51.074;13.764;2023-08-12T07:22:57;21.60;99.90
43949;DHT22;29429;51.074;13.764;2023-08-12T07:25:24;21.50;99.90
43949;DHT22;29429;51.074;13.764;2023-08-12T07:27:51;21.50;99.90
43949;DHT22;29429;51.074;13.764;2023-08-12T07:30:18;21.50;99.90
43949;DHT22;29429;51.074;13.764;2023-08-12T07:32:45;21.50;99.90
43949;DHT22;29429;51.074;13.764;2023-08-12T07:35:12;21.60;99.90
43949;DHT22;29429;51.074;13.764;2023-08-12T07:37:39;21.60;99.90
43949;DHT22;29429;51.074;13.764;2023-08-12T07:40:06;21.70;99.90
43949;DHT22;29429;51.074;13.764;2023-08-12T07:42:35;21.80;99.90
43949;DHT22;29429;51.074;13.764;2023-08-12T07:45:03;21.90;99.90
43949;DHT22;29429;51.074;13.764;2023-08-12T07:47:30;22.10;99.90
43949;DHT22;29429;51.074;13.764;2023-08-12T07:52:25;22.50;99.90
43949;DHT22;29429;51.074;13.764;2023-08-12T07:54:52;22.60;99.90
43949;DHT22;29429;51.074;13.764;2023-08-12T07:57:19;22.90;99.90
43949;DHT22;29429;51.074;13.764;2023-08-12T07:59:51;23.20;99.90
43949;DHT22;29429;51.074;13.764;2023-08-12T08:02:18;23.40;99.90
43949;DHT22;29429;51.074;13.764;2023-08-12T08:04:45;23.70;99.90
43949;DHT22;29429;51.074;13.764;2023-08-12T08:07:16;24.00;99.90
43949;DHT22;29429;51.074;13.764;2023-08-12T08:09:44;24.20;99.90
43949;DHT22;29429;51.074;13.764;2023-08-12T08:12:11;24.40;99.90
43949;DHT22;29429;51.074;13.764;2023-08-12T08:14:39;24.60;99.90
43949;DHT22;29429;51.074;13.764;2023-08-12T08:17:06;24.70;99.90
43949;DHT22;29429;51.074;13.764;2023-08-12T08:19:33;24.80;99.90
43949;DHT22;29429;51.074;13.764;2023-08-12T08:22:00;24.80;99.90
43949;DHT22;29429;51.074;13.764;2023-08-12T08:24:27;24.80;99.90
43949;DHT22;29429;51.074;13.764;2023-08-12T08:26:54;24.80;99.90
43949;DHT22;29429;51.074;13.764;2023-08-12T08:29:21;24.80;99.90
43949;DHT22;29429;51.074;13.764;2023-08-12T08:31:49;24.80;99.90
43949;DHT22;29429;51.074;13.764;2023-08-12T08:34:17;24.80;99.90
43949;DHT22;29429;51.074;13.764;2023-08-12T08:36:44;24.90;99.90
43949;DHT22;29429;51.074;13.764;2023-08-12T08:39:11;24.90;99.90
43949;DHT22;29429;51.074;13.764;2023-08-12T08:41:39;24.90;99.90
43949;DHT22;29429;51.074;13.764;2023-08-12T08:44:08;24.90;99.90
43949;DHT22;29429;51.074;13.764;2023-08-12T08:46:36;24.90;99.90
43949;DHT22;29429;51.074;13.764;2023-08-12T08:49:04;25.00;99.90
43949;DHT22;29429;51.074;13.764;2023-08-12T08:51:32;25.00;99.90
43949;DHT22;29429;51.074;13.764;2023-08-12T08:54:00;25.00;99.90
43949;DHT22;29429;51.074;13.764;2023-08-12T08:56:31;25.00;99.90
43949;DHT22;29429;51.074;13.764;2023-08-12T08:59:10;25.00;99.90
43949;DHT22;29429;51.074;13.764;2023-08-12T09:01:38;25.00;99.90
43949;DHT22;29429;51.074;13.764;2023-08-12T09:04:06;25.00;99.90
43949;DHT22;29429;51.074;13.764;2023-08-12T09:06:36;25.10;99.90
43949;DHT22;29429;51.074;13.764;2023-08-12T09:09:09;25.20;99.90
43949;DHT22;29429;51.074;13.764;2023-08-12T09:11:39;25.30;99.90
43949;DHT22;29429;51.074;13.764;2023-08-12T09:14:07;25.40;99.90
43949;DHT22;29429;51.074;13.764;2023-08-12T09:16:35;25.40;99.90
43949;DHT22;29429;51.074;13.764;2023-08-12T09:19:03;25.50;99.90
43949;DHT22;29429;51.074;13.764;2023-08-12T09:21:30;25.60;99.90
43949;DHT22;29429;51.074;13.764;2023-08-12T09:24:02;25.60;99.90
43949;DHT22;29429;51.074;13.764;2023-08-12T09:26:31;25.70;99.90
43949;DHT22;29429;51.074;13.764;2023-08-12T09:28:59;25.90;99.90
43949;DHT22;29429;51.074;13.764;2023-08-12T09:31:28;26.00;99.90
43949;DHT22;29429;51.074;13.764;2023-08-12T09:34:04;26.10;99.90
43949;DHT22;29429;51.074;13.764;2023-08-12T09:36:34;26.30;99.90
43949;DHT22;29429;51.074;13.764;2023-08-12T09:39:09;26.50;99.90
43949;DHT22;29429;51.074;13.764;2023-08-12T09:41:37;26.70;99.90
43949;DHT22;29429;51.074;13.764;2023-08-12T09:44:05;27.00;99.80
43949;DHT22;29429;51.074;13.764;2023-08-12T09:46:33;27.20;98.60
43949;DHT22;29429;51.074;13.764;2023-08-12T09:49:00;27.40;98.20
43949;DHT22;29429;51.074;13.764;2023-08-12T09:51:34;27.70;97.80
43949;DHT22;29429;51.074;13.764;2023-08-12T09:54:09;27.90;96.80
43949;DHT22;29429;51.074;13.764;2023-08-12T09:56:42;28.00;96.10
43949;DHT22;29429;51.074;13.764;2023-08-12T09:59:11;28.10;95.30
43949;DHT22;29429;51.074;13.764;2023-08-12T10:01:41;28.30;95.20
43949;DHT22;29429;51.074;13.764;2023-08-12T10:04:11;28.40;93.80
43949;DHT22;29429;51.074;13.764;2023-08-12T10:06:44;28.50;92.70
43949;DHT22;29429;51.074;13.764;2023-08-12T10:09:12;28.60;93.10
43949;DHT22;29429;51.074;13.764;2023-08-12T10:11:39;28.60;92.40
43949;DHT22;29429;51.074;13.764;2023-08-12T10:14:09;28.70;91.80
43949;DHT22;29429;51.074;13.764;2023-08-12T10:16:36;28.70;91.80
43949;DHT22;29429;51.074;13.764;2023-08-12T10:19:11;28.80;91.80
43949;DHT22;29429;51.074;13.764;2023-08-12T10:21:39;28.80;91.90
43949;DHT22;29429;51.074;13.764;2023-08-12T10:24:08;28.80;91.80
43949;DHT22;29429;51.074;13.764;2023-08-12T10:26:40;28.80;92.50
43949;DHT22;29429;51.074;13.764;2023-08-12T10:29:07;28.70;91.80
43949;DHT22;29429;51.074;13.764;2023-08-12T10:31:35;28.60;91.00
43949;DHT22;29429;51.074;13.764;2023-08-12T10:34:04;28.60;90.30
43949;DHT22;29429;51.074;13.764;2023-08-12T10:36:32;28.40;91.50
43949;DHT22;29429;51.074;13.764;2023-08-12T10:39:08;28.40;90.80
43949;DHT22;29429;51.074;13.764;2023-08-12T10:41:37;28.30;90.80
43949;DHT22;29429;51.074;13.764;2023-08-12T10:44:05;28.20;91.00
43949;DHT22;29429;51.074;13.764;2023-08-12T10:46:34;28.20;91.00
43949;DHT22;29429;51.074;13.764;2023-08-12T10:49:10;28.10;91.50
43949;DHT22;29429;51.074;13.764;2023-08-12T10:51:49;28.00;91.60
43949;DHT22;29429;51.074;13.764;2023-08-12T10:54:25;28.00;92.40
43949;DHT22;29429;51.074;13.764;2023-08-12T11:02:28;27.90;92.30
43949;DHT22;29429;51.074;13.764;2023-08-12T11:05:05;27.90;91.60
43949;DHT22;29429;51.074;13.764;2023-08-12T11:12:55;27.90;90.90
43949;DHT22;29429;51.074;13.764;2023-08-12T11:15:43;27.90;90.90
43949;DHT22;29429;51.074;13.764;2023-08-12T11:18:15;28.00;90.80
43949;DHT22;29429;51.074;13.764;2023-08-12T11:20:43;28.10;91.50
43949;DHT22;29429;51.074;13.764;2023-08-12T11:23:10;28.30;91.50
43949;DHT22;29429;51.074;13.764;2023-08-12T11:25:39;28.70;91.50
43949;DHT22;29429;51.074;13.764;2023-08-12T11:28:08;29.00;90.80
43949;DHT22;29429;51.074;13.764;2023-08-12T11:30:35;29.30;90.70
43949;DHT22;29429;51.074;13.764;2023-08-12T11:33:03;29.50;88.70
43949;DHT22;29429;51.074;13.764;2023-08-12T11:35:30;29.60;85.70
43949;DHT22;29429;51.074;13.764;2023-08-12T11:37:58;29.70;86.10
43949;DHT22;29429;51.074;13.764;2023-08-12T11:40:27;29.60;85.80
43949;DHT22;29429;51.074;13.764;2023-08-12T11:42:55;29.60;84.00
43949;DHT22;29429;51.074;13.764;2023-08-12T11:45:25;29.50;83.50
43949;DHT22;29429;51.074;13.764;2023-08-12T11:47:54;29.30;84.50
43949;DHT22;29429;51.074;13.764;2023-08-12T11:50:24;29.20;86.30
43949;DHT22;29429;51.074;13.764;2023-08-12T11:52:53;29.10;84.80
43949;DHT22;29429;51.074;13.764;2023-08-12T11:55:22;29.00;86.40
43949;DHT22;29429;51.074;13.764;2023-08-12T11:57:51;28.90;86.80
43949;DHT22;29429;51.074;13.764;2023-08-12T12:00:19;28.90;86.80
43949;DHT22;29429;51.074;13.764;2023-08-12T12:02:52;28.90;87.20
43949;DHT22;29429;51.074;13.764;2023-08-12T12:05:23;29.00;88.00
43949;DHT22;29429;51.074;13.764;2023-08-12T12:07:52;29.20;88.10
43949;DHT22;29429;51.074;13.764;2023-08-12T12:10:31;29.40;87.70
43949;DHT22;29429;51.074;13.764;2023-08-12T12:13:03;29.70;85.80
43949;DHT22;29429;51.074;13.764;2023-08-12T12:15:37;30.10;85.90
43949;DHT22;29429;51.074;13.764;2023-08-12T12:18:12;30.40;83.00
43949;DHT22;29429;51.074;13.764;2023-08-12T12:23:30;31.00;79.00
43949;DHT22;29429;51.074;13.764;2023-08-12T12:26:02;31.10;78.30
43949;DHT22;29429;51.074;13.764;2023-08-12T12:28:31;31.30;76.90
43949;DHT22;29429;51.074;13.764;2023-08-12T12:30:58;31.30;77.90
43949;DHT22;29429;51.074;13.764;2023-08-12T12:33:25;31.20;77.10
43949;DHT22;29429;51.074;13.764;2023-08-12T12:35:52;31.00;77.60
43949;DHT22;29429;51.074;13.764;2023-08-12T12:38:26;30.80;76.50
43949;DHT22;29429;51.074;13.764;2023-08-12T12:40:54;30.70;77.50
43949;DHT22;29429;51.074;13.764;2023-08-12T12:43:21;30.70;78.20
43949;DHT22;29429;51.074;13.764;2023-08-12T12:45:48;30.70;79.40
43949;DHT22;29429;51.074;13.764;2023-08-12T12:48:15;30.70;78.00
43949;DHT22;29429;51.074;13.764;2023-08-12T12:50:42;30.60;78.40
43949;DHT22;29429;51.074;13.764;2023-08-12T12:53:09;30.70;78.80
43949;DHT22;29429;51.074;13.764;2023-08-12T12:55:36;30.90;79.00
43949;DHT22;29429;51.074;13.764;2023-08-12T12:58:03;31.00;77.50
43949;DHT22;29429;51.074;13.764;2023-08-12T13:00:30;31.20;77.10
43949;DHT22;29429;51.074;13.764;2023-08-12T13:02:57;31.30;77.30
43949;DHT22;29429;51.074;13.764;2023-08-12T13:05:24;31.30;77.20
43949;DHT22;29429;51.074;13.764;2023-08-12T13:07:51;31.20;76.00
43949;DHT22;29429;51.074;13.764;2023-08-12T13:10:18;31.10;75.30
43949;DHT22;29429;51.074;13.764;2023-08-12T13:12:45;31.00;75.90
43949;DHT22;29429;51.074;13.764;2023-08-12T13:15:12;30.90;75.10
43949;DHT22;29429;51.074;13.764;2023-08-12T13:17:39;30.80;75.40
43949;DHT22;29429;51.074;13.764;2023-08-12T13:20:07;30.80;76.60
43949;DHT22;29429;51.074;13.764;2023-08-12T13:22:36;30.70;76.50
43949;DHT22;29429;51.074;13.764;2023-08-12T13:25:03;30.70;77.00
43949;DHT22;29429;51.074;13.764;2023-08-12T13:27:31;30.60;76.60
43949;DHT22;29429;51.074;13.764;2023-08-12T13:29:58;30.50;77.30
43949;DHT22;29429;51.074;13.764;2023-08-12T13:32:26;30.50;77.40
43949;DHT22;29429;51.074;13.764;2023-08-12T13:34:53;30.60;77.70
43949;DHT22;29429;51.074;13.764;2023-08-12T13:37:20;30.60;78.50
43949;DHT22;29429;51.074;13.764;2023-08-12T13:39:47;30.70;78.50
43949;DHT22;29429;51.074;13.764;2023-08-12T13:42:14;30.70;78.20
43949;DHT22;29429;51.074;13.764;2023-08-12T13:44:41;30.80;79.20
43949;DHT22;29429;51.074;13.764;2023-08-12T13:47:08;30.90;79.80
43949;DHT22;29429;51.074;13.764;2023-08-12T13:49:35;31.00;79.90
43949;DHT22;29429;51.074;13.764;2023-08-12T13:52:02;31.10;80.00
43949;DHT22;29429;51.074;13.764;2023-08-12T13:54:30;31.20;77.60
43949;DHT22;29429;51.074;13.764;2023-08-12T13:56:59;31.20;79.30
43949;DHT22;29429;51.074;13.764;2023-08-12T13:59:26;31.10;79.00
43949;DHT22;29429;51.074;13.764;2023-08-12T14:01:53;31.00;79.60
43949;DHT22;29429;51.074;13.764;2023-08-12T14:04:20;30.80;79.80
43949;DHT22;29429;51.074;13.764;2023-08-12T14:06:47;30.60;81.10
43949;DHT22;29429;51.074;13.764;2023-08-12T14:09:16;30.40;81.80
43949;DHT22;29429;51.074;13.764;2023-08-12T14:11:44;30.30;82.60
43949;DHT22;29429;51.074;13.764;2023-08-12T14:14:12;30.10;80.70
43949;DHT22;29429;51.074;13.764;2023-08-12T14:16:39;30.00;81.50
43949;DHT22;29429;51.074;13.764;2023-08-12T14:19:06;30.00;81.90
43949;DHT22;29429;51.074;13.764;2023-08-12T14:21:33;29.90;81.50
43949;DHT22;29429;51.074;13.764;2023-08-12T14:24:00;29.80;81.30
43949;DHT22;29429;51.074;13.764;2023-08-12T14:26:27;29.60;82.60
43949;DHT22;29429;51.074;13.764;2023-08-12T14:28:54;29.60;82.90
43949;DHT22;29429;51.074;13.764;2023-08-12T14:31:21;29.50;84.60
43949;DHT22;29429;51.074;13.764;2023-08-12T14:33:48;29.30;83.60
43949;DHT22;29429;51.074;13.764;2023-08-12T14:36:15;29.20;83.20
43949;DHT22;29429;51.074;13.764;2023-08-12T14:38:42;29.20;84.10
43949;DHT22;29429;51.074;13.764;2023-08-12T14:41:09;29.20;84.30
43949;DHT22;29429;51.074;13.764;2023-08-12T14:43:36;29.20;84.00
43949;DHT22;29429;51.074;13.764;2023-08-12T14:46:03;29.20;84.00
43949;DHT22;29429;51.074;13.764;2023-08-12T14:48:31;29.20;84.00
43949;DHT22;29429;51.074;13.764;2023-08-12T14:50:58;29.10;84.10
43949;DHT22;29429;51.074;13.764;2023-08-12T14:53:26;29.00;84.20
43949;DHT22;29429;51.074;13.764;2023-08-12T14:55:53;28.90;83.80
43949;DHT22;29429;51.074;13.764;2023-08-12T14:58:21;28.80;83.30
43949;DHT22;29429;51.074;13.764;2023-08-12T15:00:48;28.70;82.80
43949;DHT22;29429;51.074;13.764;2023-08-12T15:03:15;28.70;82.40
43949;DHT22;29429;51.074;13.764;2023-08-12T15:05:42;28.60;82.90
43949;DHT22;29429;51.074;13.764;2023-08-12T15:08:09;28.60;83.90
43949;DHT22;29429;51.074;13.764;2023-08-12T15:10:36;28.40;83.10
43949;DHT22;29429;51.074;13.764;2023-08-12T15:13:03;28.40;82.80
43949;DHT22;29429;51.074;13.764;2023-08-12T15:15:31;28.40;82.20
43949;DHT22;29429;51.074;13.764;2023-08-12T15:17:58;28.30;81.90
43949;DHT22;29429;51.074;13.764;2023-08-12T15:20:27;28.30;82.00
43949;DHT22;29429;51.074;13.764;2023-08-12T15:22:57;28.30;83.10
43949;DHT22;29429;51.074;13.764;2023-08-12T15:25:24;28.40;83.00
43949;DHT22;29429;51.074;13.764;2023-08-12T15:27:52;28.50;83.00
43949;DHT22;29429;51.074;13.764;2023-08-12T15:30:19;28.50;82.10
43949;DHT22;29429;51.074;13.764;2023-08-12T15:32:46;28.60;81.90
43949;DHT22;29429;51.074;13.764;2023-08-12T15:35:13;28.70;82.00
43949;DHT22;29429;51.074;13.764;2023-08-12T15:37:40;28.80;83.50
43949;DHT22;29429;51.074;13.764;2023-08-12T15:40:07;29.00;82.80